地図

経路データ

SID SEASON NUMBER BASIN SUBBASIN NAME ISO_TIME NATURE LAT LON WMO_WIND WMO_PRES WMO_AGENCY TRACK_TYPE DIST2LAND LANDFALL IFLAG USA_AGENCY USA_ATCF_ID USA_LAT USA_LON USA_RECORD USA_STATUS USA_WIND USA_PRES USA_SSHS USA_R34_NE USA_R34_SE USA_R34_SW USA_R34_NW USA_R50_NE USA_R50_SE USA_R50_SW USA_R50_NW USA_R64_NE USA_R64_SE USA_R64_SW USA_R64_NW USA_POCI USA_ROCI USA_RMW USA_EYE TOKYO_LAT TOKYO_LON TOKYO_GRADE TOKYO_WIND TOKYO_PRES TOKYO_R50_DIR TOKYO_R50_LONG TOKYO_R50_SHORT TOKYO_R30_DIR TOKYO_R30_LONG TOKYO_R30_SHORT TOKYO_LAND CMA_LAT CMA_LON CMA_CAT CMA_WIND CMA_PRES HKO_LAT HKO_LON HKO_CAT HKO_WIND HKO_PRES NEWDELHI_LAT NEWDELHI_LON NEWDELHI_GRADE NEWDELHI_WIND NEWDELHI_PRES NEWDELHI_CI NEWDELHI_DP NEWDELHI_POCI REUNION_LAT REUNION_LON REUNION_TYPE REUNION_WIND REUNION_PRES REUNION_TNUM REUNION_CI REUNION_RMW REUNION_R34_NE REUNION_R34_SE REUNION_R34_SW REUNION_R34_NW REUNION_R50_NE REUNION_R50_SE REUNION_R50_SW REUNION_R50_NW REUNION_R64_NE REUNION_R64_SE REUNION_R64_SW REUNION_R64_NW BOM_LAT BOM_LON BOM_TYPE BOM_WIND BOM_PRES BOM_TNUM BOM_CI BOM_RMW BOM_R34_NE BOM_R34_SE BOM_R34_SW BOM_R34_NW BOM_R50_NE BOM_R50_SE BOM_R50_SW BOM_R50_NW BOM_R64_NE BOM_R64_SE BOM_R64_SW BOM_R64_NW BOM_ROCI BOM_POCI BOM_EYE BOM_POS_METHOD BOM_PRES_METHOD NADI_LAT NADI_LON NADI_CAT NADI_WIND NADI_PRES WELLINGTON_LAT WELLINGTON_LON WELLINGTON_WIND WELLINGTON_PRES DS824_LAT DS824_LON DS824_STAGE DS824_WIND DS824_PRES TD9636_LAT TD9636_LON TD9636_STAGE TD9636_WIND TD9636_PRES TD9635_LAT TD9635_LON TD9635_WIND TD9635_PRES TD9635_ROCI NEUMANN_LAT NEUMANN_LON NEUMANN_CLASS NEUMANN_WIND NEUMANN_PRES MLC_LAT MLC_LON MLC_CLASS MLC_WIND MLC_PRES USA_GUST BOM_GUST BOM_GUST_PER REUNION_GUST REUNION_GUST_PER USA_SEAHGT USA_SEARAD_NE USA_SEARAD_SE USA_SEARAD_SW USA_SEARAD_NW STORM_SPEED STORM_DIR
1888001S13052 1888 2 SI MM NOT_NAMED 1888-01-01 06:00:00 NR -12.9000 51.9000 reunion main 213 213 _____O________ -1 -12.9000 51.9000 99 9.90000 0 0
1888001S13052 1888 2 SI MM NOT_NAMED 1888-01-01 09:00:00 NR -12.9239 51.8950 main 213 213 _____P________ -1 -12.9239 51.8950 99 1 203
1888001S13052 1888 2 SI MM NOT_NAMED 1888-01-01 12:00:00 NR -12.9515 51.8810 main 210 210 _____P________ -1 -12.9515 51.8810 99 1 218
1888001S13052 1888 2 SI MM NOT_NAMED 1888-01-01 15:00:00 NR -12.9865 51.8489 main 200 200 _____P________ -1 -12.9865 51.8489 99 1 227
1888001S13052 1888 2 SI MM NOT_NAMED 1888-01-01 18:00:00 NR -13.0326 51.7898 main 200 187 _____P________ -1 -13.0326 51.7898 99 2 234
1888001S13052 1888 2 SI MM NOT_NAMED 1888-01-01 21:00:00 NR -13.0933 51.6944 main 187 174 _____P________ -1 -13.0933 51.6944 99 3 239
1888001S13052 1888 2 SI MM NOT_NAMED 1888-01-02 00:00:00 NR -13.1724 51.5538 main 174 151 _____P________ -1 -13.1724 51.5538 99 4 241
1888001S13052 1888 2 SI MM NOT_NAMED 1888-01-02 03:00:00 NR -13.2734 51.3587 main 151 117 _____P________ -1 -13.2734 51.3587 99 5 243
1888001S13052 1888 2 SI MM NOT_NAMED 1888-01-02 06:00:00 NR -13.4000 51.1000 reunion main 117 82 _____O________ -1 -13.4000 51.1000 99 9.90000 6 244
1888001S13052 1888 2 SI MM NOT_NAMED 1888-01-02 09:00:00 NR -13.5537 50.7728 main 78 34 _____P________ -1 -13.5537 50.7728 99 8 245
1888001S13052 1888 2 SI MM NOT_NAMED 1888-01-02 12:00:00 NR -13.7286 50.3898 main 34 0 _____P________ -1 -13.7286 50.3898 99 9 245
1888001S13052 1888 2 SI MM NOT_NAMED 1888-01-02 15:00:00 NR -13.9171 49.9685 main 0 0 _____P________ -1 -13.9171 49.9685 99 9 245
1888001S13052 1888 2 SI MM NOT_NAMED 1888-01-02 18:00:00 NR -14.1116 49.5262 main 0 0 _____P________ -1 -14.1116 49.5262 99 9 246
1888001S13052 1888 2 SI MM NOT_NAMED 1888-01-02 21:00:00 NR -14.3044 49.0805 main 0 0 _____P________ -1 -14.3044 49.0805 99 9 246
1888001S13052 1888 2 SI MM NOT_NAMED 1888-01-03 00:00:00 NR -14.4882 48.6490 main 0 0 _____P________ -1 -14.4882 48.6490 99 9 246
1888001S13052 1888 2 SI MM NOT_NAMED 1888-01-03 03:00:00 NR -14.6558 48.2496 main 0 0 _____P________ -1 -14.6558 48.2496 99 8 247
1888001S13052 1888 2 SI MM NOT_NAMED 1888-01-03 06:00:00 NR -14.8000 47.9000 reunion main 0 0 _____O________ -1 -14.8000 47.9000 99 9.90000 7 247
1888001S13052 1888 2 SI MM NOT_NAMED 1888-01-03 09:00:00 NR -14.9156 47.6138 main 10 0 _____P________ -1 -14.9156 47.6138 99 5 248
1888001S13052 1888 2 SI MM NOT_NAMED 1888-01-03 12:00:00 NR -15.0048 47.3870 main 0 0 _____P________ -1 -15.0048 47.3870 99 4 248
1888001S13052 1888 2 SI MM NOT_NAMED 1888-01-03 15:00:00 NR -15.0715 47.2111 main 0 0 _____P________ -1 -15.0715 47.2111 99 3 249
1888001S13052 1888 2 SI MM NOT_NAMED 1888-01-03 18:00:00 NR -15.1195 47.0778 main 10 0 _____P________ -1 -15.1195 47.0778 99 2 250
1888001S13052 1888 2 SI MM NOT_NAMED 1888-01-03 21:00:00 NR -15.1526 46.9786 main 0 0 _____P________ -1 -15.1526 46.9786 99 2 252
1888001S13052 1888 2 SI MM NOT_NAMED 1888-01-04 00:00:00 NR -15.1746 46.9048 main 10 10 _____P________ -1 -15.1746 46.9048 99 1 254
1888001S13052 1888 2 SI MM NOT_NAMED 1888-01-04 03:00:00 NR -15.1892 46.8482 main 11 11 _____P________ -1 -15.1892 46.8482 99 1 256
1888001S13052 1888 2 SI MM NOT_NAMED 1888-01-04 06:00:00 NR -15.2000 46.8000 reunion main 11 _____O________ -1 -15.2000 46.8000 99 9.90000 1 254

IBTrACS Databaseについて

本データベースは、米国NOAAが公開する1842年以降の世界の熱帯低気圧のベストトラックデータアーカイブInternational Best Track Archive for Climate Stewardship (IBTrACS)を、ウェブで閲覧しやすい形式に変換したものです。

最終更新日:2021-12-06